sensor_id;sensor_type;location;lat;lon;timestamp;temperature;humidity
19256;DHT22;9762;52.490;13.410;2023-02-10T00:01:13;5.60;81.60
19256;DHT22;9762;52.490;13.410;2023-02-10T00:03:39;5.60;82.60
19256;DHT22;9762;52.490;13.410;2023-02-10T00:06:05;5.70;82.00
19256;DHT22;9762;52.490;13.410;2023-02-10T00:08:32;5.70;82.10
19256;DHT22;9762;52.490;13.410;2023-02-10T00:10:59;5.70;82.20
19256;DHT22;9762;52.490;13.410;2023-02-10T00:13:26;5.70;82.60
19256;DHT22;9762;52.490;13.410;2023-02-10T00:15:52;5.70;82.80
19256;DHT22;9762;52.490;13.410;2023-02-10T00:18:17;5.80;82.80
19256;DHT22;9762;52.490;13.410;2023-02-10T00:20:43;5.80;82.70
19256;DHT22;9762;52.490;13.410;2023-02-10T00:23:09;5.80;82.70
19256;DHT22;9762;52.490;13.410;2023-02-10T00:25:35;5.80;82.70
19256;DHT22;9762;52.490;13.410;2023-02-10T00:28:02;5.80;82.90
19256;DHT22;9762;52.490;13.410;2023-02-10T00:30:28;5.80;83.30
19256;DHT22;9762;52.490;13.410;2023-02-10T00:32:54;5.80;82.80
19256;DHT22;9762;52.490;13.410;2023-02-10T00:35:19;5.80;83.20
19256;DHT22;9762;52.490;13.410;2023-02-10T00:37:45;5.80;83.40
19256;DHT22;9762;52.490;13.410;2023-02-10T00:40:10;5.80;83.50
19256;DHT22;9762;52.490;13.410;2023-02-10T00:42:36;5.80;83.50
19256;DHT22;9762;52.490;13.410;2023-02-10T00:45:02;5.70;83.60
19256;DHT22;9762;52.490;13.410;2023-02-10T00:47:28;5.70;83.80
19256;DHT22;9762;52.490;13.410;2023-02-10T00:49:53;5.80;83.90
19256;DHT22;9762;52.490;13.410;2023-02-10T00:52:19;5.80;84.20
19256;DHT22;9762;52.490;13.410;2023-02-10T00:54:44;5.80;84.60
19256;DHT22;9762;52.490;13.410;2023-02-10T00:57:10;5.80;84.50
19256;DHT22;9762;52.490;13.410;2023-02-10T00:59:36;5.80;84.50
19256;DHT22;9762;52.490;13.410;2023-02-10T01:02:01;5.90;84.60
19256;DHT22;9762;52.490;13.410;2023-02-10T01:04:27;5.90;84.50
19256;DHT22;9762;52.490;13.410;2023-02-10T01:06:53;5.90;84.60
19256;DHT22;9762;52.490;13.410;2023-02-10T01:09:18;5.90;84.60
19256;DHT22;9762;52.490;13.410;2023-02-10T01:11:44;5.90;84.60
19256;DHT22;9762;52.490;13.410;2023-02-10T01:14:10;5.90;84.70
19256;DHT22;9762;52.490;13.410;2023-02-10T01:16:36;6.00;85.00
19256;DHT22;9762;52.490;13.410;2023-02-10T01:19:02;6.00;85.10
19256;DHT22;9762;52.490;13.410;2023-02-10T01:21:28;6.00;85.20
19256;DHT22;9762;52.490;13.410;2023-02-10T01:23:55;6.00;84.90
19256;DHT22;9762;52.490;13.410;2023-02-10T01:26:21;6.00;84.90
19256;DHT22;9762;52.490;13.410;2023-02-10T01:28:47;6.00;85.00
19256;DHT22;9762;52.490;13.410;2023-02-10T01:31:18;6.00;85.00
19256;DHT22;9762;52.490;13.410;2023-02-10T01:33:44;6.00;85.00
19256;DHT22;9762;52.490;13.410;2023-02-10T01:36:13;5.90;85.10
19256;DHT22;9762;52.490;13.410;2023-02-10T01:38:38;5.90;85.30
19256;DHT22;9762;52.490;13.410;2023-02-10T01:41:05;5.90;85.60
19256;DHT22;9762;52.490;13.410;2023-02-10T01:43:31;5.90;85.70
19256;DHT22;9762;52.490;13.410;2023-02-10T01:45:57;5.90;85.70
19256;DHT22;9762;52.490;13.410;2023-02-10T01:48:25;5.80;85.80
19256;DHT22;9762;52.490;13.410;2023-02-10T01:53:19;5.80;86.20
19256;DHT22;9762;52.490;13.410;2023-02-10T01:55:47;5.80;86.40
19256;DHT22;9762;52.490;13.410;2023-02-10T01:58:18;5.80;86.40
19256;DHT22;9762;52.490;13.410;2023-02-10T02:00:45;5.80;86.60
19256;DHT22;9762;52.490;13.410;2023-02-10T02:03:11;5.80;86.80
19256;DHT22;9762;52.490;13.410;2023-02-10T02:05:39;5.80;86.80
19256;DHT22;9762;52.490;13.410;2023-02-10T02:08:13;5.70;87.10
19256;DHT22;9762;52.490;13.410;2023-02-10T02:24:54;5.60;88.10
19256;DHT22;9762;52.490;13.410;2023-02-10T02:30:45;5.60;88.30
19256;DHT22;9762;52.490;13.410;2023-02-10T02:33:24;5.60;88.30
19256;DHT22;9762;52.490;13.410;2023-02-10T02:36:43;5.60;88.40
19256;DHT22;9762;52.490;13.410;2023-02-10T02:38:48;5.60;88.40
19256;DHT22;9762;52.490;13.410;2023-02-10T02:41:23;5.50;88.40
19256;DHT22;9762;52.490;13.410;2023-02-10T02:43:48;5.50;88.50
19256;DHT22;9762;52.490;13.410;2023-02-10T02:46:57;5.50;88.80
19256;DHT22;9762;52.490;13.410;2023-02-10T02:49:59;5.50;88.60
19256;DHT22;9762;52.490;13.410;2023-02-10T02:55:13;5.40;89.00
19256;DHT22;9762;52.490;13.410;2023-02-10T02:57:48;5.40;89.10
19256;DHT22;9762;52.490;13.410;2023-02-10T03:00:23;5.40;89.20
19256;DHT22;9762;52.490;13.410;2023-02-10T03:02:52;5.40;89.20
19256;DHT22;9762;52.490;13.410;2023-02-10T03:05:23;5.50;89.40
19256;DHT22;9762;52.490;13.410;2023-02-10T03:07:54;5.50;89.30
19256;DHT22;9762;52.490;13.410;2023-02-10T03:10:20;5.50;89.00
19256;DHT22;9762;52.490;13.410;2023-02-10T03:12:47;5.50;89.10
19256;DHT22;9762;52.490;13.410;2023-02-10T03:15:12;5.50;89.10
19256;DHT22;9762;52.490;13.410;2023-02-10T03:17:38;5.50;89.30
19256;DHT22;9762;52.490;13.410;2023-02-10T03:20:04;5.50;89.40
19256;DHT22;9762;52.490;13.410;2023-02-10T03:22:30;5.50;89.40
19256;DHT22;9762;52.490;13.410;2023-02-10T03:24:55;5.50;89.60
19256;DHT22;9762;52.490;13.410;2023-02-10T03:27:21;5.50;90.00
19256;DHT22;9762;52.490;13.410;2023-02-10T03:29:47;5.40;90.00
19256;DHT22;9762;52.490;13.410;2023-02-10T03:32:15;5.50;90.10
19256;DHT22;9762;52.490;13.410;2023-02-10T03:34:41;5.40;90.20
19256;DHT22;9762;52.490;13.410;2023-02-10T03:37:07;5.40;90.20
19256;DHT22;9762;52.490;13.410;2023-02-10T03:39:33;5.40;90.30
19256;DHT22;9762;52.490;13.410;2023-02-10T03:41:59;5.40;90.40
19256;DHT22;9762;52.490;13.410;2023-02-10T03:44:25;5.40;90.60
19256;DHT22;9762;52.490;13.410;2023-02-10T03:46:50;5.30;90.60
19256;DHT22;9762;52.490;13.410;2023-02-10T03:49:16;5.30;90.80
19256;DHT22;9762;52.490;13.410;2023-02-10T03:51:41;5.30;91.00
19256;DHT22;9762;52.490;13.410;2023-02-10T03:54:07;5.30;91.00
19256;DHT22;9762;52.490;13.410;2023-02-10T03:56:33;5.30;91.00
19256;DHT22;9762;52.490;13.410;2023-02-10T03:59:03;5.30;91.10
19256;DHT22;9762;52.490;13.410;2023-02-10T04:01:29;5.40;91.30
19256;DHT22;9762;52.490;13.410;2023-02-10T04:03:54;5.40;91.30
19256;DHT22;9762;52.490;13.410;2023-02-10T04:06:20;5.40;91.40
19256;DHT22;9762;52.490;13.410;2023-02-10T04:08:47;5.50;91.50
19256;DHT22;9762;52.490;13.410;2023-02-10T04:11:13;5.50;91.40
19256;DHT22;9762;52.490;13.410;2023-02-10T04:13:38;5.50;91.50
19256;DHT22;9762;52.490;13.410;2023-02-10T04:16:06;5.50;91.50
19256;DHT22;9762;52.490;13.410;2023-02-10T04:18:33;5.50;91.60
19256;DHT22;9762;52.490;13.410;2023-02-10T04:21:01;5.50;91.70
19256;DHT22;9762;52.490;13.410;2023-02-10T04:23:27;5.50;91.80
19256;DHT22;9762;52.490;13.410;2023-02-10T04:25:53;5.50;91.80
19256;DHT22;9762;52.490;13.410;2023-02-10T04:28:19;5.50;91.80
19256;DHT22;9762;52.490;13.410;2023-02-10T04:30:45;5.50;92.10
19256;DHT22;9762;52.490;13.410;2023-02-10T04:33:11;5.50;92.00
19256;DHT22;9762;52.490;13.410;2023-02-10T04:35:36;5.50;92.10
19256;DHT22;9762;52.490;13.410;2023-02-10T04:38:02;5.50;92.30
19256;DHT22;9762;52.490;13.410;2023-02-10T04:40:29;5.50;92.70
19256;DHT22;9762;52.490;13.410;2023-02-10T04:42:55;5.50;92.40
19256;DHT22;9762;52.490;13.410;2023-02-10T04:45:21;5.50;92.50
19256;DHT22;9762;52.490;13.410;2023-02-10T04:47:46;5.50;92.50
19256;DHT22;9762;52.490;13.410;2023-02-10T04:50:12;5.50;92.50
19256;DHT22;9762;52.490;13.410;2023-02-10T04:52:38;5.60;92.70
19256;DHT22;9762;52.490;13.410;2023-02-10T04:55:04;5.60;92.70
19256;DHT22;9762;52.490;13.410;2023-02-10T04:57:29;5.60;92.70
19256;DHT22;9762;52.490;13.410;2023-02-10T04:59:55;5.70;92.70
19256;DHT22;9762;52.490;13.410;2023-02-10T05:02:21;5.60;92.70
19256;DHT22;9762;52.490;13.410;2023-02-10T05:04:46;5.60;92.90
19256;DHT22;9762;52.490;13.410;2023-02-10T05:07:12;5.60;93.10
19256;DHT22;9762;52.490;13.410;2023-02-10T05:09:37;5.70;93.00
19256;DHT22;9762;52.490;13.410;2023-02-10T05:12:03;5.70;93.00
19256;DHT22;9762;52.490;13.410;2023-02-10T05:14:29;5.80;93.00
19256;DHT22;9762;52.490;13.410;2023-02-10T05:16:54;5.80;93.00
19256;DHT22;9762;52.490;13.410;2023-02-10T05:19:21;5.80;93.00
19256;DHT22;9762;52.490;13.410;2023-02-10T05:21:46;5.90;93.10
19256;DHT22;9762;52.490;13.410;2023-02-10T05:24:12;5.90;93.00
19256;DHT22;9762;52.490;13.410;2023-02-10T05:26:38;5.90;93.00
19256;DHT22;9762;52.490;13.410;2023-02-10T05:29:03;5.90;93.10
19256;DHT22;9762;52.490;13.410;2023-02-10T05:31:29;5.90;93.10
19256;DHT22;9762;52.490;13.410;2023-02-10T05:33:54;6.00;93.10
19256;DHT22;9762;52.490;13.410;2023-02-10T05:36:20;6.00;93.10
19256;DHT22;9762;52.490;13.410;2023-02-10T05:38:46;6.00;93.20
19256;DHT22;9762;52.490;13.410;2023-02-10T05:41:31;6.00;93.20
19256;DHT22;9762;52.490;13.410;2023-02-10T05:43:57;6.00;93.20
19256;DHT22;9762;52.490;13.410;2023-02-10T05:46:22;6.00;93.30
19256;DHT22;9762;52.490;13.410;2023-02-10T05:48:48;6.00;93.20
19256;DHT22;9762;52.490;13.410;2023-02-10T05:51:13;6.10;93.20
19256;DHT22;9762;52.490;13.410;2023-02-10T05:53:39;6.10;93.20
19256;DHT22;9762;52.490;13.410;2023-02-10T05:56:05;6.10;93.30
19256;DHT22;9762;52.490;13.410;2023-02-10T05:58:30;6.00;93.20
19256;DHT22;9762;52.490;13.410;2023-02-10T06:01:01;6.00;93.30
19256;DHT22;9762;52.490;13.410;2023-02-10T06:03:30;6.00;93.40
19256;DHT22;9762;52.490;13.410;2023-02-10T06:05:56;6.00;93.50
19256;DHT22;9762;52.490;13.410;2023-02-10T06:08:21;6.00;93.50
19256;DHT22;9762;52.490;13.410;2023-02-10T06:10:47;5.90;93.50
19256;DHT22;9762;52.490;13.410;2023-02-10T06:13:12;5.90;93.70
19256;DHT22;9762;52.490;13.410;2023-02-10T06:15:39;5.90;93.80
19256;DHT22;9762;52.490;13.410;2023-02-10T06:18:05;5.90;93.80
19256;DHT22;9762;52.490;13.410;2023-02-10T06:20:30;5.90;93.90
19256;DHT22;9762;52.490;13.410;2023-02-10T06:22:56;5.90;93.90
19256;DHT22;9762;52.490;13.410;2023-02-10T06:25:21;5.80;94.10
19256;DHT22;9762;52.490;13.410;2023-02-10T06:27:47;5.80;94.20
19256;DHT22;9762;52.490;13.410;2023-02-10T06:30:13;5.80;94.40
19256;DHT22;9762;52.490;13.410;2023-02-10T06:32:38;5.80;94.60
19256;DHT22;9762;52.490;13.410;2023-02-10T06:35:04;5.80;94.60
19256;DHT22;9762;52.490;13.410;2023-02-10T06:37:30;5.80;94.60
19256;DHT22;9762;52.490;13.410;2023-02-10T06:39:55;5.80;94.70
19256;DHT22;9762;52.490;13.410;2023-02-10T06:42:21;5.80;94.60
19256;DHT22;9762;52.490;13.410;2023-02-10T06:44:47;5.70;94.70
19256;DHT22;9762;52.490;13.410;2023-02-10T06:47:12;5.70;94.80
19256;DHT22;9762;52.490;13.410;2023-02-10T06:49:38;5.70;94.90
19256;DHT22;9762;52.490;13.410;2023-02-10T06:52:04;5.80;94.90
19256;DHT22;9762;52.490;13.410;2023-02-10T06:54:29;5.70;95.00
19256;DHT22;9762;52.490;13.410;2023-02-10T06:56:55;5.70;94.90
19256;DHT22;9762;52.490;13.410;2023-02-10T06:59:21;5.70;95.00
19256;DHT22;9762;52.490;13.410;2023-02-10T07:01:47;5.70;95.20
19256;DHT22;9762;52.490;13.410;2023-02-10T07:04:12;5.70;95.20
19256;DHT22;9762;52.490;13.410;2023-02-10T07:06:39;5.70;95.30
19256;DHT22;9762;52.490;13.410;2023-02-10T07:09:05;5.70;95.30
19256;DHT22;9762;52.490;13.410;2023-02-10T07:11:31;5.70;95.50
19256;DHT22;9762;52.490;13.410;2023-02-10T07:13:57;5.70;95.60
19256;DHT22;9762;52.490;13.410;2023-02-10T07:16:23;5.80;96.30
19256;DHT22;9762;52.490;13.410;2023-02-10T07:18:48;5.80;96.30
19256;DHT22;9762;52.490;13.410;2023-02-10T07:21:14;5.80;97.00
19256;DHT22;9762;52.490;13.410;2023-02-10T07:23:40;5.90;96.70
19256;DHT22;9762;52.490;13.410;2023-02-10T07:26:06;6.00;96.70
19256;DHT22;9762;52.490;13.410;2023-02-10T07:28:32;6.10;96.60
19256;DHT22;9762;52.490;13.410;2023-02-10T07:30:58;6.20;96.50
19256;DHT22;9762;52.490;13.410;2023-02-10T07:33:24;6.30;95.90
19256;DHT22;9762;52.490;13.410;2023-02-10T07:35:49;6.30;95.80
19256;DHT22;9762;52.490;13.410;2023-02-10T07:38:15;6.30;95.60
19256;DHT22;9762;52.490;13.410;2023-02-10T07:40:41;6.40;95.30
19256;DHT22;9762;52.490;13.410;2023-02-10T07:43:06;6.40;95.30
19256;DHT22;9762;52.490;13.410;2023-02-10T07:45:32;6.50;95.20
19256;DHT22;9762;52.490;13.410;2023-02-10T07:47:58;6.60;95.10
19256;DHT22;9762;52.490;13.410;2023-02-10T07:50:24;6.60;94.90
19256;DHT22;9762;52.490;13.410;2023-02-10T07:52:50;6.70;94.80
19256;DHT22;9762;52.490;13.410;2023-02-10T07:55:16;6.70;94.70
19256;DHT22;9762;52.490;13.410;2023-02-10T07:57:42;6.80;94.70
19256;DHT22;9762;52.490;13.410;2023-02-10T08:00:08;6.80;94.70
19256;DHT22;9762;52.490;13.410;2023-02-10T08:02:34;6.80;94.60
19256;DHT22;9762;52.490;13.410;2023-02-10T08:05:00;6.80;94.60
19256;DHT22;9762;52.490;13.410;2023-02-10T08:07:26;6.80;95.10
19256;DHT22;9762;52.490;13.410;2023-02-10T08:09:51;6.80;95.30
19256;DHT22;9762;52.490;13.410;2023-02-10T08:12:17;6.80;95.10
19256;DHT22;9762;52.490;13.410;2023-02-10T08:14:43;6.80;95.10
19256;DHT22;9762;52.490;13.410;2023-02-10T08:17:08;6.80;95.20
19256;DHT22;9762;52.490;13.410;2023-02-10T08:19:34;6.80;95.00
19256;DHT22;9762;52.490;13.410;2023-02-10T08:22:03;6.80;95.10
19256;DHT22;9762;52.490;13.410;2023-02-10T08:24:30;6.80;95.30
19256;DHT22;9762;52.490;13.410;2023-02-10T08:26:56;6.80;95.30
19256;DHT22;9762;52.490;13.410;2023-02-10T08:29:22;6.80;95.30
19256;DHT22;9762;52.490;13.410;2023-02-10T08:31:51;6.80;95.30
19256;DHT22;9762;52.490;13.410;2023-02-10T08:34:19;6.90;95.20
19256;DHT22;9762;52.490;13.410;2023-02-10T08:36:45;6.90;95.20
19256;DHT22;9762;52.490;13.410;2023-02-10T08:39:12;6.90;95.20
19256;DHT22;9762;52.490;13.410;2023-02-10T08:41:38;6.90;95.20
19256;DHT22;9762;52.490;13.410;2023-02-10T08:44:05;7.00;95.30
19256;DHT22;9762;52.490;13.410;2023-02-10T08:46:31;7.00;95.20
19256;DHT22;9762;52.490;13.410;2023-02-10T08:48:57;7.00;95.20
19256;DHT22;9762;52.490;13.410;2023-02-10T08:51:26;7.00;95.20
19256;DHT22;9762;52.490;13.410;2023-02-10T08:53:52;7.10;95.30
19256;DHT22;9762;52.490;13.410;2023-02-10T08:56:18;7.10;95.20
19256;DHT22;9762;52.490;13.410;2023-02-10T08:58:45;7.20;95.10
19256;DHT22;9762;52.490;13.410;2023-02-10T09:01:20;7.20;95.20
19256;DHT22;9762;52.490;13.410;2023-02-10T09:03:47;7.20;95.10
19256;DHT22;9762;52.490;13.410;2023-02-10T09:06:25;7.20;95.10
19256;DHT22;9762;52.490;13.410;2023-02-10T09:08:51;7.20;95.10
19256;DHT22;9762;52.490;13.410;2023-02-10T09:11:18;7.20;95.20
19256;DHT22;9762;52.490;13.410;2023-02-10T09:13:44;7.20;95.30
19256;DHT22;9762;52.490;13.410;2023-02-10T09:16:10;7.20;95.40
19256;DHT22;9762;52.490;13.410;2023-02-10T09:18:36;7.30;95.40
19256;DHT22;9762;52.490;13.410;2023-02-10T09:21:01;7.20;95.40
19256;DHT22;9762;52.490;13.410;2023-02-10T09:23:28;7.30;95.40
19256;DHT22;9762;52.490;13.410;2023-02-10T09:25:55;7.30;95.40
19256;DHT22;9762;52.490;13.410;2023-02-10T09:28:21;7.40;95.30
19256;DHT22;9762;52.490;13.410;2023-02-10T09:30:46;7.40;95.20
19256;DHT22;9762;52.490;13.410;2023-02-10T09:33:14;7.40;95.20
19256;DHT22;9762;52.490;13.410;2023-02-10T09:35:39;7.40;95.30
19256;DHT22;9762;52.490;13.410;2023-02-10T09:38:06;7.40;95.30
19256;DHT22;9762;52.490;13.410;2023-02-10T09:40:36;7.50;95.40
19256;DHT22;9762;52.490;13.410;2023-02-10T09:43:27;7.50;95.40
19256;DHT22;9762;52.490;13.410;2023-02-10T09:46:05;7.50;95.40
19256;DHT22;9762;52.490;13.410;2023-02-10T09:53:55;7.50;95.50
19256;DHT22;9762;52.490;13.410;2023-02-10T09:56:21;7.50;95.60
19256;DHT22;9762;52.490;13.410;2023-02-10T09:58:55;7.50;95.70
19256;DHT22;9762;52.490;13.410;2023-02-10T10:01:25;7.40;95.80
19256;DHT22;9762;52.490;13.410;2023-02-10T10:06:27;7.50;96.00
19256;DHT22;9762;52.490;13.410;2023-02-10T10:11:38;7.50;95.90
19256;DHT22;9762;52.490;13.410;2023-02-10T10:14:15;7.60;95.80
19256;DHT22;9762;52.490;13.410;2023-02-10T10:19:38;7.70;95.60
19256;DHT22;9762;52.490;13.410;2023-02-10T10:27:18;7.80;95.60
19256;DHT22;9762;52.490;13.410;2023-02-10T10:29:56;7.90;95.50
19256;DHT22;9762;52.490;13.410;2023-02-10T10:32:35;8.00;95.30
19256;DHT22;9762;52.490;13.410;2023-02-10T10:35:02;8.00;95.30
19256;DHT22;9762;52.490;13.410;2023-02-10T10:37:29;8.00;95.60
19256;DHT22;9762;52.490;13.410;2023-02-10T10:40:06;8.00;95.30
19256;DHT22;9762;52.490;13.410;2023-02-10T10:50:29;8.20;94.90
19256;DHT22;9762;52.490;13.410;2023-02-10T10:52:56;8.20;95.00
19256;DHT22;9762;52.490;13.410;2023-02-10T10:55:32;8.20;95.10
19256;DHT22;9762;52.490;13.410;2023-02-10T10:58:02;8.20;95.10
19256;DHT22;9762;52.490;13.410;2023-02-10T11:00:29;8.30;95.30
19256;DHT22;9762;52.490;13.410;2023-02-10T11:03:03;8.30;95.00
19256;DHT22;9762;52.490;13.410;2023-02-10T11:05:36;8.40;95.20
19256;DHT22;9762;52.490;13.410;2023-02-10T11:08:04;8.50;95.70
19256;DHT22;9762;52.490;13.410;2023-02-10T11:10:48;8.50;95.30
19256;DHT22;9762;52.490;13.410;2023-02-10T11:13:23;8.60;95.00
19256;DHT22;9762;52.490;13.410;2023-02-10T11:16:06;8.70;94.90
19256;DHT22;9762;52.490;13.410;2023-02-10T11:18:32;8.80;94.70
19256;DHT22;9762;52.490;13.410;2023-02-10T11:21:01;8.80;94.10
19256;DHT22;9762;52.490;13.410;2023-02-10T11:23:27;8.90;94.30
19256;DHT22;9762;52.490;13.410;2023-02-10T11:26:00;8.90;94.20
19256;DHT22;9762;52.490;13.410;2023-02-10T11:28:28;9.00;94.20
19256;DHT22;9762;52.490;13.410;2023-02-10T11:31:01;9.00;93.80
19256;DHT22;9762;52.490;13.410;2023-02-10T11:33:34;9.10;93.80
19256;DHT22;9762;52.490;13.410;2023-02-10T11:36:04;9.10;93.80
19256;DHT22;9762;52.490;13.410;2023-02-10T11:38:31;9.20;93.90
19256;DHT22;9762;52.490;13.410;2023-02-10T11:41:00;9.30;93.90
19256;DHT22;9762;52.490;13.410;2023-02-10T11:46:02;9.40;98.30
19256;DHT22;9762;52.490;13.410;2023-02-10T11:48:30;9.40;97.90
19256;DHT22;9762;52.490;13.410;2023-02-10T11:51:16;9.60;98.10
19256;DHT22;9762;52.490;13.410;2023-02-10T11:53:44;9.60;95.00
19256;DHT22;9762;52.490;13.410;2023-02-10T11:56:33;9.60;93.00
19256;DHT22;9762;52.490;13.410;2023-02-10T12:13:14;10.00;99.90
19256;DHT22;9762;52.490;13.410;2023-02-10T12:26:23;9.90;99.90
19256;DHT22;9762;52.490;13.410;2023-02-10T12:34:42;10.20;94.70
19256;DHT22;9762;52.490;13.410;2023-02-10T12:37:24;10.30;91.80
19256;DHT22;9762;52.490;13.410;2023-02-10T12:40:23;10.20;91.80
19256;DHT22;9762;52.490;13.410;2023-02-10T12:53:55;10.40;91.40
19256;DHT22;9762;52.490;13.410;2023-02-10T12:59:04;10.40;91.30
19256;DHT22;9762;52.490;13.410;2023-02-10T13:01:42;10.40;91.20
19256;DHT22;9762;52.490;13.410;2023-02-10T13:04:21;10.30;91.20
19256;DHT22;9762;52.490;13.410;2023-02-10T13:06:54;10.30;91.40
19256;DHT22;9762;52.490;13.410;2023-02-10T13:14:41;10.10;91.70
19256;DHT22;9762;52.490;13.410;2023-02-10T13:17:08;10.10;91.80
19256;DHT22;9762;52.490;13.410;2023-02-10T13:19:55;10.00;91.80
19256;DHT22;9762;52.490;13.410;2023-02-10T13:25:31;10.00;92.00
19256;DHT22;9762;52.490;13.410;2023-02-10T13:28:35;10.00;92.00
19256;DHT22;9762;52.490;13.410;2023-02-10T13:31:15;10.10;92.10
19256;DHT22;9762;52.490;13.410;2023-02-10T13:34:18;10.00;92.00
19256;DHT22;9762;52.490;13.410;2023-02-10T13:36:49;10.00;92.00
19256;DHT22;9762;52.490;13.410;2023-02-10T13:39:19;9.90;92.20
19256;DHT22;9762;52.490;13.410;2023-02-10T13:41:47;9.80;92.30
19256;DHT22;9762;52.490;13.410;2023-02-10T13:44:28;9.90;92.50
19256;DHT22;9762;52.490;13.410;2023-02-10T13:47:37;9.90;92.50
19256;DHT22;9762;52.490;13.410;2023-02-10T13:50:20;10.00;92.40
19256;DHT22;9762;52.490;13.410;2023-02-10T13:52:58;10.00;92.30
19256;DHT22;9762;52.490;13.410;2023-02-10T13:55:48;10.00;92.60
19256;DHT22;9762;52.490;13.410;2023-02-10T14:00:48;10.10;92.30
19256;DHT22;9762;52.490;13.410;2023-02-10T14:06:01;10.10;92.00
19256;DHT22;9762;52.490;13.410;2023-02-10T14:11:02;10.10;92.00
19256;DHT22;9762;52.490;13.410;2023-02-10T14:13:31;10.10;92.00
19256;DHT22;9762;52.490;13.410;2023-02-10T14:16:28;10.10;91.90
19256;DHT22;9762;52.490;13.410;2023-02-10T14:19:00;10.10;91.90
19256;DHT22;9762;52.490;13.410;2023-02-10T14:21:40;10.10;92.00
19256;DHT22;9762;52.490;13.410;2023-02-10T14:24:14;10.20;91.80
19256;DHT22;9762;52.490;13.410;2023-02-10T14:26:42;10.20;91.80
19256;DHT22;9762;52.490;13.410;2023-02-10T14:29:16;10.30;91.80
19256;DHT22;9762;52.490;13.410;2023-02-10T14:31:45;10.30;91.50
19256;DHT22;9762;52.490;13.410;2023-02-10T14:34:29;10.30;91.40
19256;DHT22;9762;52.490;13.410;2023-02-10T14:37:00;10.30;91.30
19256;DHT22;9762;52.490;13.410;2023-02-10T14:39:28;10.40;91.30
19256;DHT22;9762;52.490;13.410;2023-02-10T14:41:57;10.40;91.20
19256;DHT22;9762;52.490;13.410;2023-02-10T14:44:35;10.30;91.20
19256;DHT22;9762;52.490;13.410;2023-02-10T14:47:03;10.30;91.20
19256;DHT22;9762;52.490;13.410;2023-02-10T14:49:29;10.20;91.20
19256;DHT22;9762;52.490;13.410;2023-02-10T14:51:58;10.20;91.30
19256;DHT22;9762;52.490;13.410;2023-02-10T14:54:25;10.20;91.40
19256;DHT22;9762;52.490;13.410;2023-02-10T14:59:37;10.20;91.30
19256;DHT22;9762;52.490;13.410;2023-02-10T15:02:20;10.20;91.20
19256;DHT22;9762;52.490;13.410;2023-02-10T15:04:48;10.10;91.50
19256;DHT22;9762;52.490;13.410;2023-02-10T15:07:18;10.10;91.30
19256;DHT22;9762;52.490;13.410;2023-02-10T15:09:46;10.10;91.40
19256;DHT22;9762;52.490;13.410;2023-02-10T15:12:15;10.10;91.40
19256;DHT22;9762;52.490;13.410;2023-02-10T15:14:46;10.00;91.40
19256;DHT22;9762;52.490;13.410;2023-02-10T15:17:15;9.90;91.50
19256;DHT22;9762;52.490;13.410;2023-02-10T15:20:14;9.90;91.60
19256;DHT22;9762;52.490;13.410;2023-02-10T15:22:45;9.90;91.60
19256;DHT22;9762;52.490;13.410;2023-02-10T15:28:20;9.80;91.80
19256;DHT22;9762;52.490;13.410;2023-02-10T15:30:54;9.70;91.90
19256;DHT22;9762;52.490;13.410;2023-02-10T15:33:33;9.70;92.00
19256;DHT22;9762;52.490;13.410;2023-02-10T15:38:44;9.70;92.10
19256;DHT22;9762;52.490;13.410;2023-02-10T15:44:34;9.70;92.20
19256;DHT22;9762;52.490;13.410;2023-02-10T15:49:43;9.60;92.00
19256;DHT22;9762;52.490;13.410;2023-02-10T15:52:13;9.60;92.10
19256;DHT22;9762;52.490;13.410;2023-02-10T15:54:41;9.50;92.30
19256;DHT22;9762;52.490;13.410;2023-02-10T15:57:10;9.40;92.40
19256;DHT22;9762;52.490;13.410;2023-02-10T15:59:37;9.40;92.50
19256;DHT22;9762;52.490;13.410;2023-02-10T16:02:05;9.40;92.60
19256;DHT22;9762;52.490;13.410;2023-02-10T16:04:33;9.40;92.60
19256;DHT22;9762;52.490;13.410;2023-02-10T16:07:00;9.40;92.50
19256;DHT22;9762;52.490;13.410;2023-02-10T16:09:27;9.30;92.40
19256;DHT22;9762;52.490;13.410;2023-02-10T16:11:53;9.30;92.50
19256;DHT22;9762;52.490;13.410;2023-02-10T16:14:19;9.30;92.50
19256;DHT22;9762;52.490;13.410;2023-02-10T16:16:47;9.30;92.60
19256;DHT22;9762;52.490;13.410;2023-02-10T16:19:17;9.30;92.80
19256;DHT22;9762;52.490;13.410;2023-02-10T16:21:44;9.20;92.80
19256;DHT22;9762;52.490;13.410;2023-02-10T16:24:15;9.20;92.80
19256;DHT22;9762;52.490;13.410;2023-02-10T16:26:41;9.20;93.00
19256;DHT22;9762;52.490;13.410;2023-02-10T16:29:15;9.20;93.00
19256;DHT22;9762;52.490;13.410;2023-02-10T16:31:41;9.20;93.00
19256;DHT22;9762;52.490;13.410;2023-02-10T16:34:08;9.10;93.00
19256;DHT22;9762;52.490;13.410;2023-02-10T16:36:34;9.10;93.10
19256;DHT22;9762;52.490;13.410;2023-02-10T16:39:00;9.10;93.00
19256;DHT22;9762;52.490;13.410;2023-02-10T16:41:25;9.10;93.00
19256;DHT22;9762;52.490;13.410;2023-02-10T16:43:51;9.10;92.90
19256;DHT22;9762;52.490;13.410;2023-02-10T16:46:17;9.10;93.20
19256;DHT22;9762;52.490;13.410;2023-02-10T16:48:45;9.10;93.20
19256;DHT22;9762;52.490;13.410;2023-02-10T16:51:11;9.00;93.10
19256;DHT22;9762;52.490;13.410;2023-02-10T16:53:36;9.00;93.20
19256;DHT22;9762;52.490;13.410;2023-02-10T16:56:02;9.00;93.20
19256;DHT22;9762;52.490;13.410;2023-02-10T16:58:28;8.90;93.30
19256;DHT22;9762;52.490;13.410;2023-02-10T17:00:54;8.80;93.40
19256;DHT22;9762;52.490;13.410;2023-02-10T17:03:32;8.80;93.60
19256;DHT22;9762;52.490;13.410;2023-02-10T17:05:58;8.80;93.50
19256;DHT22;9762;52.490;13.410;2023-02-10T17:08:24;8.70;93.60
19256;DHT22;9762;52.490;13.410;2023-02-10T17:10:50;8.70;93.70
19256;DHT22;9762;52.490;13.410;2023-02-10T17:13:17;8.60;93.90
19256;DHT22;9762;52.490;13.410;2023-02-10T17:15:43;8.60;94.10
19256;DHT22;9762;52.490;13.410;2023-02-10T17:18:10;8.50;94.20
19256;DHT22;9762;52.490;13.410;2023-02-10T17:20:37;8.50;94.30
19256;DHT22;9762;52.490;13.410;2023-02-10T17:23:02;8.40;94.50
19256;DHT22;9762;52.490;13.410;2023-02-10T17:25:29;8.40;94.60
19256;DHT22;9762;52.490;13.410;2023-02-10T17:27:55;8.30;94.80
19256;DHT22;9762;52.490;13.410;2023-02-10T17:30:23;8.30;95.10
19256;DHT22;9762;52.490;13.410;2023-02-10T17:32:49;8.30;95.10
19256;DHT22;9762;52.490;13.410;2023-02-10T17:35:17;8.20;95.10
19256;DHT22;9762;52.490;13.410;2023-02-10T17:37:44;8.20;95.00
19256;DHT22;9762;52.490;13.410;2023-02-10T17:40:12;8.20;95.10
19256;DHT22;9762;52.490;13.410;2023-02-10T17:42:40;8.20;95.10
19256;DHT22;9762;52.490;13.410;2023-02-10T17:45:06;8.10;95.10
19256;DHT22;9762;52.490;13.410;2023-02-10T17:47:31;8.10;95.30
19256;DHT22;9762;52.490;13.410;2023-02-10T17:49:57;8.10;95.30
19256;DHT22;9762;52.490;13.410;2023-02-10T17:52:23;8.00;95.30
19256;DHT22;9762;52.490;13.410;2023-02-10T17:54:48;8.00;95.40
19256;DHT22;9762;52.490;13.410;2023-02-10T17:57:14;8.00;95.60
19256;DHT22;9762;52.490;13.410;2023-02-10T17:59:40;8.00;96.00
19256;DHT22;9762;52.490;13.410;2023-02-10T18:02:12;8.00;96.00